createdAt,value
2019-04-25T00:02:24.840Z,9.60
2019-04-25T00:04:53.522Z,9.50
2019-04-25T00:07:22.600Z,9.40
2019-04-25T00:09:52.805Z,9.30
2019-04-25T00:12:22.261Z,9.20
2019-04-25T00:14:51.304Z,9.20
2019-04-25T00:17:21.446Z,9.20
2019-04-25T00:19:51.064Z,9.00
2019-04-25T00:22:34.331Z,8.70
2019-04-25T00:25:15.920Z,8.50
2019-04-25T00:27:43.272Z,8.50
2019-04-25T00:30:11.318Z,8.40
2019-04-25T00:32:41.252Z,8.30
2019-04-25T00:35:11.712Z,8.30
2019-04-25T00:37:40.313Z,8.30
2019-04-25T00:40:09.003Z,8.40
2019-04-25T00:42:37.617Z,8.40
2019-04-25T00:45:07.483Z,8.30
2019-04-25T00:47:36.032Z,8.10
2019-04-25T00:50:05.608Z,7.90
2019-04-25T00:52:34.219Z,7.90
2019-04-25T00:55:02.793Z,7.90
2019-04-25T00:57:32.064Z,7.90
2019-04-25T01:00:18.258Z,7.90
2019-04-25T01:02:49.440Z,7.90
2019-04-25T01:05:18.258Z,7.90
2019-04-25T01:07:47.716Z,7.90
2019-04-25T01:10:16.507Z,7.90
2019-04-25T01:12:45.046Z,7.90
2019-04-25T01:15:14.523Z,7.70
2019-04-25T01:17:43.062Z,7.70
2019-04-25T01:20:12.068Z,7.60
2019-04-25T01:22:40.609Z,7.70
2019-04-25T01:25:10.609Z,7.70
2019-04-25T01:27:39.291Z,7.60
2019-04-25T01:30:09.297Z,7.70
2019-04-25T01:32:38.936Z,7.70
2019-04-25T01:35:18.039Z,7.70
2019-04-25T01:38:00.260Z,7.80
2019-04-25T01:40:45.826Z,7.80
2019-04-25T01:43:23.353Z,7.80
2019-04-25T01:45:53.811Z,7.70
2019-04-25T01:48:23.456Z,7.50
2019-04-25T01:50:53.912Z,7.40
2019-04-25T01:53:24.051Z,7.40
2019-04-25T01:56:00.564Z,7.40
2019-04-25T01:58:23.660Z,7.30
2019-04-25T02:00:54.642Z,7.30
2019-04-25T02:03:25.421Z,7.30
2019-04-25T02:05:53.381Z,7.30
2019-04-25T02:08:23.909Z,7.40
2019-04-25T02:10:56.698Z,7.50
2019-04-25T02:13:25.714Z,7.60
2019-04-25T02:15:55.164Z,7.60
2019-04-25T02:18:24.699Z,7.60
2019-04-25T02:20:56.582Z,7.60
2019-04-25T02:23:24.044Z,7.60
2019-04-25T02:26:06.795Z,7.40
2019-04-25T02:28:23.989Z,7.40
2019-04-25T02:30:53.665Z,7.50
2019-04-25T02:33:24.252Z,7.50
2019-04-25T02:35:54.297Z,7.40
2019-04-25T02:38:24.350Z,7.40
2019-04-25T02:40:56.303Z,7.40
2019-04-25T02:43:23.992Z,7.30
2019-04-25T02:46:06.496Z,7.10
2019-04-25T02:48:47.027Z,7.00
2019-04-25T02:51:26.531Z,7.00
2019-04-25T02:53:57.776Z,7.00
2019-04-25T02:56:34.073Z,7.20
2019-04-25T02:58:56.752Z,7.10
2019-04-25T03:01:26.247Z,7.10
2019-04-25T03:03:57.321Z,6.90
2019-04-25T03:06:25.477Z,6.80
2019-04-25T03:08:54.463Z,6.90
2019-04-25T03:11:24.511Z,6.90
2019-04-25T03:13:54.562Z,6.90
2019-04-25T03:16:25.127Z,6.80
2019-04-25T03:19:02.894Z,6.70
2019-04-25T03:21:35.253Z,6.60
2019-04-25T03:24:09.068Z,6.60
2019-04-25T03:26:40.366Z,6.70
2019-04-25T03:29:05.241Z,6.80
2019-04-25T03:31:35.063Z,6.80
2019-04-25T03:34:09.495Z,6.80
2019-04-25T03:36:34.450Z,6.90
2019-04-25T03:39:05.293Z,6.80
2019-04-25T03:41:34.165Z,6.90
2019-04-25T03:44:05.295Z,7.00
2019-04-25T03:46:33.651Z,7.10
2019-04-25T03:49:04.130Z,7.00
2019-04-25T03:51:33.693Z,7.00
2019-04-25T03:54:04.486Z,6.90
2019-04-25T03:56:33.383Z,6.90
2019-04-25T03:59:02.702Z,7.00
2019-04-25T04:01:34.145Z,7.00
2019-04-25T04:04:04.627Z,7.10
2019-04-25T04:06:34.033Z,7.10
2019-04-25T04:09:04.831Z,7.10
2019-04-25T04:11:33.823Z,7.00
2019-04-25T04:14:03.919Z,7.10
2019-04-25T04:16:34.349Z,7.10
2019-04-25T04:19:04.909Z,7.10
2019-04-25T04:21:40.413Z,7.00
2019-04-25T04:24:10.590Z,7.00
2019-04-25T04:26:39.158Z,6.90
2019-04-25T04:29:07.841Z,7.00
2019-04-25T04:31:36.455Z,7.20
2019-04-25T04:34:05.001Z,7.30
2019-04-25T04:36:33.890Z,7.40
2019-04-25T04:39:03.914Z,7.50
2019-04-25T04:41:33.806Z,7.60
2019-04-25T04:44:04.107Z,7.60
2019-04-25T04:46:34.012Z,7.60
2019-04-25T04:49:03.940Z,7.70
2019-04-25T04:51:33.613Z,7.70
2019-04-25T04:54:03.413Z,7.90
2019-04-25T04:56:34.047Z,8.00
2019-04-25T04:59:03.678Z,8.00
2019-04-25T05:01:33.972Z,8.10
2019-04-25T05:04:10.617Z,8.20
2019-04-25T05:06:40.942Z,8.20
2019-04-25T05:09:12.484Z,8.30
2019-04-25T05:11:41.806Z,8.40
2019-04-25T05:14:11.037Z,8.50
2019-04-25T05:16:40.406Z,8.60
2019-04-25T05:19:08.945Z,8.70
2019-04-25T05:21:37.593Z,8.80
2019-04-25T05:24:06.246Z,8.90
2019-04-25T05:26:34.792Z,9.00
2019-04-25T05:29:03.677Z,9.10
2019-04-25T05:31:34.215Z,9.20
2019-04-25T05:34:03.681Z,9.40
2019-04-25T05:36:38.240Z,9.50
2019-04-25T05:39:09.011Z,9.60
2019-04-25T05:41:40.031Z,9.70
2019-04-25T05:44:08.643Z,9.70
2019-04-25T05:46:37.198Z,9.90
2019-04-25T05:49:05.807Z,10.00
2019-04-25T05:51:34.438Z,10.10
2019-04-25T05:54:04.160Z,10.20
2019-04-25T05:56:33.774Z,10.30
2019-04-25T05:59:03.355Z,10.50
2019-04-25T06:01:35.552Z,10.60
2019-04-25T06:04:03.679Z,10.70
2019-04-25T06:06:36.659Z,10.90
2019-04-25T06:09:19.319Z,11.00
2019-04-25T06:12:05.968Z,11.20
2019-04-25T06:14:34.526Z,11.50
2019-04-25T06:17:10.586Z,11.60
2019-04-25T06:19:53.394Z,11.90
2019-04-25T06:22:26.825Z,12.10
2019-04-25T06:24:57.128Z,12.30
2019-04-25T06:27:28.168Z,12.50
2019-04-25T06:30:00.861Z,12.70
2019-04-25T06:32:29.055Z,13.10
2019-04-25T06:34:57.596Z,13.50
2019-04-25T06:37:27.003Z,13.80
2019-04-25T06:39:55.608Z,14.20
2019-04-25T06:42:24.790Z,14.50
2019-04-25T06:44:59.027Z,14.90
2019-04-25T06:47:29.576Z,15.10
2019-04-25T06:50:00.767Z,15.40
2019-04-25T06:52:31.176Z,15.80
2019-04-25T06:54:59.538Z,16.30
2019-04-25T06:57:29.134Z,16.70
2019-04-25T06:59:58.403Z,17.00
2019-04-25T07:02:27.375Z,17.30
2019-04-25T07:04:56.049Z,17.30
2019-04-25T07:07:26.657Z,17.30
2019-04-25T07:09:54.837Z,17.30
2019-04-25T07:12:26.285Z,17.40
2019-04-25T07:14:53.966Z,17.70
2019-04-25T07:17:24.092Z,18.00
2019-04-25T07:19:54.124Z,18.30
2019-04-25T07:22:23.972Z,18.50
2019-04-25T07:24:53.734Z,18.90
2019-04-25T07:27:25.402Z,19.20
2019-04-25T07:29:59.294Z,19.40
2019-04-25T07:32:37.226Z,19.60
2019-04-25T07:35:06.860Z,19.80
2019-04-25T07:37:37.352Z,19.90
2019-04-25T07:40:07.929Z,19.90
2019-04-25T07:42:36.536Z,19.90
2019-04-25T07:45:07.914Z,19.80
2019-04-25T07:47:36.480Z,19.80
2019-04-25T07:50:08.527Z,20.00
2019-04-25T07:52:37.687Z,20.20
2019-04-25T07:55:07.009Z,20.50
2019-04-25T07:57:35.893Z,20.60
2019-04-25T08:00:07.583Z,20.50
2019-04-25T08:02:36.144Z,20.20
2019-04-25T08:05:07.656Z,20.10
2019-04-25T08:07:36.318Z,20.10
2019-04-25T08:10:09.914Z,20.00
2019-04-25T08:12:39.458Z,20.10
2019-04-25T08:15:28.383Z,20.30
2019-04-25T08:18:08.018Z,20.30
2019-04-25T08:20:37.324Z,20.30
2019-04-25T08:23:06.903Z,20.50
2019-04-25T08:25:38.899Z,20.60
2019-04-25T08:28:05.940Z,20.80
2019-04-25T08:30:35.639Z,20.70
2019-04-25T08:33:05.295Z,20.80
2019-04-25T08:35:35.210Z,20.90
2019-04-25T08:38:05.860Z,21.00
2019-04-25T08:40:36.981Z,21.10
2019-04-25T08:43:04.995Z,21.00
2019-04-25T08:45:35.695Z,21.20
2019-04-25T08:48:04.050Z,21.40
2019-04-25T08:50:41.101Z,21.50
2019-04-25T08:53:09.978Z,21.60
2019-04-25T08:55:40.168Z,21.70
2019-04-25T08:58:23.636Z,21.70
2019-04-25T09:01:00.897Z,21.70
2019-04-25T09:03:35.788Z,21.70
2019-04-25T09:06:05.548Z,22.00
2019-04-25T09:08:36.026Z,22.20
2019-04-25T09:11:04.343Z,22.20
2019-04-25T09:13:35.405Z,22.20
2019-04-25T09:16:03.622Z,22.20
2019-04-25T09:18:34.707Z,22.10
2019-04-25T09:21:03.910Z,22.00
2019-04-25T09:23:34.400Z,21.80
2019-04-25T09:26:04.009Z,21.90
2019-04-25T09:28:35.060Z,22.00
2019-04-25T09:31:03.963Z,22.10
2019-04-25T09:33:34.157Z,22.20
2019-04-25T09:36:02.792Z,22.30
2019-04-25T09:38:31.423Z,22.40
2019-04-25T09:40:59.958Z,22.60
2019-04-25T09:43:28.603Z,22.70
2019-04-25T09:46:03.176Z,22.70
2019-04-25T09:48:40.280Z,22.50
2019-04-25T09:51:13.547Z,22.50
2019-04-25T09:53:49.615Z,22.50
2019-04-25T09:56:18.864Z,22.70
2019-04-25T09:58:49.518Z,22.60
2019-04-25T10:01:18.320Z,22.60
2019-04-25T10:03:47.335Z,22.60
2019-04-25T10:06:17.858Z,22.60
2019-04-25T10:08:47.432Z,22.80
2019-04-25T10:11:16.616Z,22.80
2019-04-25T10:13:48.266Z,22.60
2019-04-25T10:16:16.927Z,22.50
2019-04-25T10:18:45.859Z,22.40
2019-04-25T10:21:15.303Z,22.30
2019-04-25T10:23:45.366Z,22.10
2019-04-25T10:26:14.414Z,22.10
2019-04-25T10:28:44.075Z,22.10
2019-04-25T10:31:13.728Z,22.00
2019-04-25T10:33:43.739Z,22.00
2019-04-25T10:36:14.472Z,22.00
2019-04-25T10:38:46.292Z,22.00
2019-04-25T10:41:14.282Z,22.00
2019-04-25T10:43:43.996Z,21.90
2019-04-25T10:46:14.170Z,21.80
2019-04-25T10:48:43.985Z,21.70
2019-04-25T10:51:13.905Z,21.80
2019-04-25T10:53:45.460Z,21.90
2019-04-25T10:56:14.147Z,22.00
2019-04-25T10:58:44.462Z,22.00
2019-04-25T11:01:15.025Z,22.10
2019-04-25T11:03:51.678Z,22.10
2019-04-25T11:06:23.292Z,22.30
2019-04-25T11:08:55.028Z,22.50
2019-04-25T11:11:23.998Z,22.70
2019-04-25T11:13:54.558Z,22.80
2019-04-25T11:16:24.296Z,22.80
2019-04-25T11:18:54.697Z,22.60
2019-04-25T11:21:24.277Z,22.60
2019-04-25T11:23:55.157Z,22.60
2019-04-25T11:26:23.489Z,22.60
2019-04-25T11:28:52.178Z,22.60
2019-04-25T11:31:23.537Z,22.60
2019-04-25T11:33:54.276Z,22.70
2019-04-25T11:36:24.770Z,22.70
2019-04-25T11:38:54.863Z,22.70
2019-04-25T11:41:24.467Z,22.70
2019-04-25T11:43:55.267Z,22.60
2019-04-25T11:46:24.182Z,22.60
2019-04-25T11:48:54.695Z,22.50
2019-04-25T11:51:24.035Z,22.50
2019-04-25T11:53:54.244Z,22.50
2019-04-25T11:56:24.200Z,22.50
2019-04-25T11:58:54.148Z,22.50
2019-04-25T12:01:24.298Z,22.50
2019-04-25T12:03:54.835Z,22.50
2019-04-25T12:06:24.367Z,22.60
2019-04-25T12:08:54.180Z,22.60
2019-04-25T12:11:23.635Z,22.50
2019-04-25T12:13:54.235Z,22.50
2019-04-25T12:16:24.522Z,22.50
2019-04-25T12:18:56.072Z,22.50
2019-04-25T12:21:23.949Z,22.50
2019-04-25T12:23:52.665Z,22.30
2019-04-25T12:26:21.510Z,22.20
2019-04-25T12:28:50.044Z,22.20
2019-04-25T12:31:19.061Z,22.20
2019-04-25T12:33:48.645Z,22.10
2019-04-25T12:36:17.950Z,22.10
2019-04-25T12:38:46.620Z,22.10
2019-04-25T12:41:15.231Z,22.10
2019-04-25T12:43:45.782Z,22.10
2019-04-25T12:46:22.134Z,22.10
2019-04-25T12:48:51.644Z,22.10
2019-04-25T12:51:20.575Z,22.10
2019-04-25T12:53:49.122Z,22.10
2019-04-25T12:56:20.246Z,22.10
2019-04-25T12:58:47.963Z,22.10
2019-04-25T13:01:16.660Z,22.10
2019-04-25T13:03:45.199Z,22.00
2019-04-25T13:06:15.719Z,22.00
2019-04-25T13:08:44.138Z,22.00
2019-04-25T13:11:13.941Z,22.00
2019-04-25T13:13:43.615Z,22.00
2019-04-25T13:16:13.143Z,22.00
2019-04-25T13:18:41.852Z,21.90
2019-04-25T13:21:10.420Z,21.80
2019-04-25T13:23:39.023Z,21.90
2019-04-25T13:26:07.892Z,21.90
2019-04-25T13:28:56.273Z,21.90
2019-04-25T13:31:26.439Z,21.80
2019-04-25T13:34:04.264Z,21.80
2019-04-25T13:36:32.963Z,21.80
2019-04-25T13:39:05.551Z,21.70
2019-04-25T13:41:34.300Z,21.70
2019-04-25T13:44:03.561Z,21.70
2019-04-25T13:46:34.296Z,21.70
2019-04-25T13:49:04.252Z,21.70
2019-04-25T13:51:33.295Z,21.70
2019-04-25T13:54:02.129Z,21.70
2019-04-25T13:56:30.788Z,21.80
2019-04-25T13:58:59.359Z,21.80
2019-04-25T14:01:27.988Z,21.80
2019-04-25T14:03:56.864Z,21.80
2019-04-25T14:06:26.196Z,21.80
2019-04-25T14:08:54.907Z,21.90
2019-04-25T14:11:24.087Z,21.90
2019-04-25T14:13:52.941Z,21.90
2019-04-25T14:16:40.068Z,21.90
2019-04-25T14:19:10.348Z,21.90
2019-04-25T14:21:39.022Z,21.90
2019-04-25T14:24:19.649Z,21.90
2019-04-25T14:26:37.979Z,21.90
2019-04-25T14:29:06.511Z,21.90
2019-04-25T14:31:45.431Z,21.90
2019-04-25T14:34:05.398Z,21.90
2019-04-25T14:36:34.549Z,21.90
2019-04-25T14:39:03.974Z,21.80
2019-04-25T14:41:32.592Z,21.90
2019-04-25T14:44:01.227Z,21.90
2019-04-25T14:46:29.954Z,22.00
2019-04-25T14:48:58.608Z,22.10
2019-04-25T14:51:28.143Z,22.10
2019-04-25T14:53:57.806Z,22.10
2019-04-25T14:56:32.397Z,22.10
2019-04-25T14:59:01.033Z,22.20
2019-04-25T15:01:30.189Z,22.30
2019-04-25T15:03:58.787Z,22.40
2019-04-25T15:06:27.687Z,22.50
2019-04-25T15:08:56.271Z,22.60
2019-04-25T15:11:24.803Z,22.70
2019-04-25T15:13:53.381Z,22.80
2019-04-25T15:16:22.393Z,22.80
2019-04-25T15:18:51.936Z,22.80
2019-04-25T15:21:20.490Z,22.80
2019-04-25T15:23:59.601Z,22.80
2019-04-25T15:26:19.320Z,22.80
2019-04-25T15:28:47.857Z,22.80
2019-04-25T15:31:16.452Z,22.80
2019-04-25T15:33:45.013Z,22.60
2019-04-25T15:36:24.755Z,22.50
2019-04-25T15:38:57.987Z,22.50
2019-04-25T15:41:33.698Z,22.50
2019-04-25T15:44:20.040Z,22.50
2019-04-25T15:46:53.112Z,22.40
2019-04-25T15:49:21.740Z,22.30
2019-04-25T15:51:51.550Z,22.20
2019-04-25T15:54:20.088Z,22.10
2019-04-25T15:56:48.728Z,22.20
2019-04-25T15:59:17.253Z,22.20
2019-04-25T16:01:45.956Z,22.10
2019-04-25T16:04:14.504Z,22.10
2019-04-25T16:06:43.044Z,22.10
2019-04-25T16:09:11.743Z,22.10
2019-04-25T16:11:41.067Z,22.00
2019-04-25T16:14:09.556Z,22.00
2019-04-25T16:16:38.361Z,22.00
2019-04-25T16:19:07.212Z,21.80
2019-04-25T16:21:35.836Z,21.80
2019-04-25T16:24:04.671Z,21.80
2019-04-25T16:26:33.618Z,21.80
2019-04-25T16:29:02.236Z,21.80
2019-04-25T16:31:30.846Z,21.80
2019-04-25T16:33:59.395Z,21.80
2019-04-25T16:36:28.008Z,21.70
2019-04-25T16:38:56.631Z,21.70
2019-04-25T16:41:25.438Z,21.70
2019-04-25T16:43:55.626Z,21.60
2019-04-25T16:46:25.155Z,21.60
2019-04-25T16:48:53.752Z,21.50
2019-04-25T16:51:23.315Z,21.40
2019-04-25T16:53:51.995Z,21.40
2019-04-25T16:56:20.595Z,21.40
2019-04-25T16:58:49.223Z,21.50
2019-04-25T17:01:18.100Z,21.50
2019-04-25T17:03:46.700Z,21.40
2019-04-25T17:06:15.300Z,21.40
2019-04-25T17:08:44.495Z,21.40
2019-04-25T17:11:13.859Z,21.30
2019-04-25T17:13:44.039Z,21.20
2019-04-25T17:16:32.712Z,21.10
2019-04-25T17:19:11.583Z,21.10
2019-04-25T17:21:40.221Z,21.00
2019-04-25T17:24:08.887Z,21.00
2019-04-25T17:26:37.436Z,21.00
2019-04-25T17:29:07.787Z,20.90
2019-04-25T17:31:40.403Z,20.80
2019-04-25T17:34:10.784Z,20.80
2019-04-25T17:36:40.963Z,20.70
2019-04-25T17:39:11.163Z,20.70
2019-04-25T17:41:40.482Z,20.70
2019-04-25T17:44:09.134Z,20.70
2019-04-25T17:46:37.667Z,20.60
2019-04-25T17:49:06.462Z,20.50
2019-04-25T17:51:35.024Z,20.50
2019-04-25T17:54:03.704Z,20.40
2019-04-25T17:56:33.201Z,20.40
2019-04-25T17:59:02.240Z,20.40
2019-04-25T18:01:30.844Z,20.30
2019-04-25T18:03:59.484Z,20.20
2019-04-25T18:06:28.084Z,20.20
2019-04-25T18:08:56.615Z,20.10
2019-04-25T18:11:25.248Z,20.00
2019-04-25T18:13:53.875Z,20.00
2019-04-25T18:16:24.127Z,20.00
2019-04-25T18:19:03.500Z,19.90
2019-04-25T18:21:32.183Z,19.90
2019-04-25T18:24:02.386Z,19.90
2019-04-25T18:26:47.558Z,19.80
2019-04-25T18:29:17.835Z,19.80
2019-04-25T18:31:46.495Z,19.80
2019-04-25T18:34:16.748Z,19.70
2019-04-25T18:36:47.221Z,19.70
2019-04-25T18:39:23.488Z,19.70
2019-04-25T18:41:56.558Z,19.70
2019-04-25T18:44:25.103Z,19.70
2019-04-25T18:46:53.803Z,19.60
2019-04-25T18:49:22.411Z,19.60
2019-04-25T18:51:57.509Z,19.60
2019-04-25T18:54:30.249Z,19.50
2019-04-25T18:57:00.526Z,19.50
2019-04-25T18:59:46.867Z,19.40
2019-04-25T19:02:18.003Z,19.40
2019-04-25T19:05:04.723Z,19.40
2019-04-25T19:07:33.366Z,19.40
2019-04-25T19:10:01.894Z,19.40
2019-04-25T19:12:30.449Z,19.30
2019-04-25T19:14:59.077Z,19.20
2019-04-25T19:17:27.676Z,19.20
2019-04-25T19:19:56.244Z,19.20
2019-04-25T19:22:24.775Z,19.20
2019-04-25T19:24:53.378Z,19.10
2019-04-25T19:27:23.852Z,19.10
2019-04-25T19:29:53.452Z,19.10
2019-04-25T19:32:22.473Z,19.10
2019-04-25T19:34:51.009Z,19.00
2019-04-25T19:37:19.684Z,19.00
2019-04-25T19:39:52.829Z,18.90
2019-04-25T19:42:23.007Z,18.80
2019-04-25T19:44:51.566Z,18.80
2019-04-25T19:47:20.802Z,18.70
2019-04-25T19:49:49.833Z,18.70
2019-04-25T19:52:18.408Z,18.70
2019-04-25T19:54:47.314Z,18.50
2019-04-25T19:57:16.166Z,18.50
2019-04-25T19:59:44.756Z,18.50
2019-04-25T20:02:27.272Z,18.50
2019-04-25T20:04:57.447Z,18.50
2019-04-25T20:07:27.639Z,18.40
2019-04-25T20:10:00.564Z,18.40
2019-04-25T20:12:33.479Z,18.30
2019-04-25T20:15:02.216Z,18.40
2019-04-25T20:17:30.744Z,18.30
2019-04-25T20:19:59.308Z,18.30
2019-04-25T20:22:27.848Z,18.20
2019-04-25T20:24:56.408Z,18.20
2019-04-25T20:27:25.016Z,18.10
2019-04-25T20:29:53.547Z,18.10
2019-04-25T20:32:22.411Z,18.00
2019-04-25T20:34:51.076Z,17.90
2019-04-25T20:37:19.734Z,17.90
2019-04-25T20:39:49.368Z,17.80
2019-04-25T20:42:18.153Z,17.80
2019-04-25T20:44:47.657Z,17.80
2019-04-25T20:47:16.316Z,17.70
2019-04-25T20:49:46.627Z,17.40
2019-04-25T20:52:15.055Z,17.30
2019-04-25T20:54:43.599Z,17.10
2019-04-25T20:57:12.161Z,17.00
2019-04-25T20:59:40.698Z,16.80
2019-04-25T21:02:09.558Z,16.70
2019-04-25T21:04:42.537Z,16.70
2019-04-25T21:07:11.749Z,16.60
2019-04-25T21:09:40.426Z,16.60
2019-04-25T21:12:09.119Z,16.40
2019-04-25T21:14:39.556Z,16.10
2019-04-25T21:17:12.881Z,16.00
2019-04-25T21:19:43.058Z,16.00
2019-04-25T21:22:11.619Z,15.90
2019-04-25T21:24:40.142Z,15.70
2019-04-25T21:27:08.708Z,15.60
2019-04-25T21:29:37.247Z,15.40
2019-04-25T21:32:05.943Z,15.40
2019-04-25T21:34:34.543Z,15.60
2019-04-25T21:37:04.444Z,15.70
2019-04-25T21:39:41.657Z,15.70
2019-04-25T21:42:13.035Z,15.50
2019-04-25T21:44:41.770Z,15.30
2019-04-25T21:47:10.399Z,15.20
2019-04-25T21:49:39.321Z,15.30
2019-04-25T21:52:07.950Z,15.30
2019-04-25T21:54:36.897Z,15.30
2019-04-25T21:57:05.885Z,15.20
2019-04-25T21:59:34.489Z,15.10
2019-04-25T22:02:03.178Z,15.10
2019-04-25T22:04:38.978Z,15.00
2019-04-25T22:07:02.997Z,14.90
2019-04-25T22:09:32.059Z,14.80
2019-04-25T22:12:01.217Z,14.70
2019-04-25T22:14:29.868Z,14.60
2019-04-25T22:16:58.900Z,14.40
2019-04-25T22:19:28.637Z,14.10
2019-04-25T22:21:58.724Z,13.90
2019-04-25T22:24:27.467Z,13.90
2019-04-25T22:26:58.775Z,13.80
2019-04-25T22:29:27.618Z,13.70
2019-04-25T22:32:07.503Z,13.70
2019-04-25T22:34:51.512Z,13.50
2019-04-25T22:37:11.513Z,13.40
2019-04-25T22:39:40.522Z,13.40
2019-04-25T22:42:09.068Z,13.40
2019-04-25T22:44:38.093Z,13.40
2019-04-25T22:47:07.080Z,13.30
2019-04-25T22:49:35.637Z,13.30
2019-04-25T22:52:04.973Z,13.20
2019-04-25T22:54:33.631Z,13.00
2019-04-25T22:57:02.614Z,12.80
2019-04-25T22:59:31.611Z,12.90
2019-04-25T23:02:13.644Z,12.90
2019-04-25T23:04:46.767Z,13.00
2019-04-25T23:07:15.778Z,13.20
2019-04-25T23:09:44.591Z,13.30
2019-04-25T23:12:13.498Z,13.40
2019-04-25T23:14:42.461Z,13.40
2019-04-25T23:17:11.497Z,13.40
2019-04-25T23:19:40.166Z,13.70
2019-04-25T23:22:09.485Z,13.90
2019-04-25T23:24:39.699Z,14.10
2019-04-25T23:27:14.162Z,14.20
2019-04-25T23:29:42.898Z,14.30
2019-04-25T23:32:12.434Z,14.30
2019-04-25T23:34:41.011Z,14.10
2019-04-25T23:37:09.623Z,14.00
2019-04-25T23:39:38.585Z,13.90
2019-04-25T23:42:07.281Z,13.80
2019-04-25T23:44:36.187Z,13.60
2019-04-25T23:47:05.955Z,13.50
2019-04-25T23:49:34.996Z,13.30
2019-04-25T23:52:03.870Z,13.10
2019-04-25T23:54:32.649Z,12.80
2019-04-25T23:57:01.561Z,12.70
2019-04-25T23:59:30.197Z,12.70
